Terminal Aerodrome Forecast
Issued by NWS

Home | Current Version | Previous Version | Text Only | Print | Product List | Glossary On
Versions: 1 2 3 4 5 6 7 8 9 10 11 12 13 14 15 16 17 18 19
000
FTUS43 KPAH 250520
TAFCGI
TAF
KCGI 250520Z 2506/2606 VRB03KT P6SM VCTS SCT040CB BKN150
     FM250900 00000KT 4SM BR SCT150 BKN250
     FM251400 10006KT P6SM VCTS SCT035CB
     FM251900 12007KT P6SM VCTS SCT045CB
     FM260300 VRB03KT P6SM SCT150=

USA.gov is the U.S. government's official web portal to all federal, state and local government web resources and services.